sensor_id;sensor_type;location;lat;lon;timestamp;temperature;humidity
43524;DHT22;29120;52.006;6.020;2022-08-19T00:01:31;19.90;91.90
43524;DHT22;29120;52.006;6.020;2022-08-19T00:03:58;19.90;92.00
43524;DHT22;29120;52.006;6.020;2022-08-19T00:06:25;19.90;92.00
43524;DHT22;29120;52.006;6.020;2022-08-19T00:08:51;19.90;92.10
43524;DHT22;29120;52.006;6.020;2022-08-19T00:11:17;19.90;92.10
43524;DHT22;29120;52.006;6.020;2022-08-19T00:13:43;19.90;92.20
43524;DHT22;29120;52.006;6.020;2022-08-19T00:16:08;19.80;92.20
43524;DHT22;29120;52.006;6.020;2022-08-19T00:18:34;19.80;92.30
43524;DHT22;29120;52.006;6.020;2022-08-19T00:21:00;19.80;92.40
43524;DHT22;29120;52.006;6.020;2022-08-19T00:23:26;19.80;92.40
43524;DHT22;29120;52.006;6.020;2022-08-19T00:25:52;19.80;92.50
43524;DHT22;29120;52.006;6.020;2022-08-19T00:28:18;19.70;92.50
43524;DHT22;29120;52.006;6.020;2022-08-19T00:30:44;19.70;92.50
43524;DHT22;29120;52.006;6.020;2022-08-19T00:33:10;19.70;92.60
43524;DHT22;29120;52.006;6.020;2022-08-19T00:35:36;19.70;92.60
43524;DHT22;29120;52.006;6.020;2022-08-19T00:38:04;19.70;92.60
43524;DHT22;29120;52.006;6.020;2022-08-19T00:40:31;19.70;92.70
43524;DHT22;29120;52.006;6.020;2022-08-19T00:42:56;19.60;92.70
43524;DHT22;29120;52.006;6.020;2022-08-19T00:45:24;19.60;92.80
43524;DHT22;29120;52.006;6.020;2022-08-19T00:47:50;19.60;92.80
43524;DHT22;29120;52.006;6.020;2022-08-19T00:50:18;19.50;92.80
43524;DHT22;29120;52.006;6.020;2022-08-19T00:52:47;19.50;92.90
43524;DHT22;29120;52.006;6.020;2022-08-19T00:55:18;19.50;92.90
43524;DHT22;29120;52.006;6.020;2022-08-19T00:57:56;19.50;93.00
43524;DHT22;29120;52.006;6.020;2022-08-19T01:00:25;19.40;93.00
43524;DHT22;29120;52.006;6.020;2022-08-19T01:02:52;19.40;93.00
43524;DHT22;29120;52.006;6.020;2022-08-19T01:05:26;19.40;93.10
43524;DHT22;29120;52.006;6.020;2022-08-19T01:07:53;19.30;93.10
43524;DHT22;29120;52.006;6.020;2022-08-19T01:10:23;19.30;93.10
43524;DHT22;29120;52.006;6.020;2022-08-19T01:12:50;19.30;93.10
43524;DHT22;29120;52.006;6.020;2022-08-19T01:15:21;19.30;93.10
43524;DHT22;29120;52.006;6.020;2022-08-19T01:17:48;19.30;93.10
43524;DHT22;29120;52.006;6.020;2022-08-19T01:20:17;19.30;93.20
43524;DHT22;29120;52.006;6.020;2022-08-19T01:22:52;19.20;93.20
43524;DHT22;29120;52.006;6.020;2022-08-19T01:25:21;19.20;93.20
43524;DHT22;29120;52.006;6.020;2022-08-19T01:27:49;19.20;93.20
43524;DHT22;29120;52.006;6.020;2022-08-19T01:30:28;19.20;93.20
43524;DHT22;29120;52.006;6.020;2022-08-19T01:32:55;19.20;93.20
43524;DHT22;29120;52.006;6.020;2022-08-19T01:35:22;19.20;93.20
43524;DHT22;29120;52.006;6.020;2022-08-19T01:37:58;19.10;93.20
43524;DHT22;29120;52.006;6.020;2022-08-19T01:40:27;19.10;93.20
43524;DHT22;29120;52.006;6.020;2022-08-19T01:42:54;19.10;93.30
43524;DHT22;29120;52.006;6.020;2022-08-19T01:45:22;19.10;93.30
43524;DHT22;29120;52.006;6.020;2022-08-19T01:47:48;19.10;93.30
43524;DHT22;29120;52.006;6.020;2022-08-19T01:50:14;19.10;93.30
43524;DHT22;29120;52.006;6.020;2022-08-19T01:52:41;19.20;93.30
43524;DHT22;29120;52.006;6.020;2022-08-19T01:55:10;19.20;93.30
43524;DHT22;29120;52.006;6.020;2022-08-19T01:57:37;19.20;93.20
43524;DHT22;29120;52.006;6.020;2022-08-19T02:00:08;19.30;93.20
43524;DHT22;29120;52.006;6.020;2022-08-19T02:02:34;19.30;93.20
43524;DHT22;29120;52.006;6.020;2022-08-19T02:04:59;19.30;93.10
43524;DHT22;29120;52.006;6.020;2022-08-19T02:07:25;19.30;93.20
43524;DHT22;29120;52.006;6.020;2022-08-19T02:09:51;19.20;93.20
43524;DHT22;29120;52.006;6.020;2022-08-19T02:12:16;19.20;93.20
43524;DHT22;29120;52.006;6.020;2022-08-19T02:14:42;19.20;93.20
43524;DHT22;29120;52.006;6.020;2022-08-19T02:17:08;19.20;93.20
43524;DHT22;29120;52.006;6.020;2022-08-19T02:19:34;19.10;93.20
43524;DHT22;29120;52.006;6.020;2022-08-19T02:22:00;19.10;93.30
43524;DHT22;29120;52.006;6.020;2022-08-19T02:24:26;19.00;93.30
43524;DHT22;29120;52.006;6.020;2022-08-19T02:26:52;18.90;93.30
43524;DHT22;29120;52.006;6.020;2022-08-19T02:29:18;19.00;93.40
43524;DHT22;29120;52.006;6.020;2022-08-19T02:31:43;19.00;93.40
43524;DHT22;29120;52.006;6.020;2022-08-19T02:34:09;18.90;93.40
43524;DHT22;29120;52.006;6.020;2022-08-19T02:36:35;18.90;93.40
43524;DHT22;29120;52.006;6.020;2022-08-19T02:39:00;18.90;93.50
43524;DHT22;29120;52.006;6.020;2022-08-19T02:41:29;18.80;93.50
43524;DHT22;29120;52.006;6.020;2022-08-19T02:43:57;18.80;93.50
43524;DHT22;29120;52.006;6.020;2022-08-19T02:46:28;18.80;93.60
43524;DHT22;29120;52.006;6.020;2022-08-19T02:49:01;18.70;93.60
43524;DHT22;29120;52.006;6.020;2022-08-19T02:51:32;18.70;93.60
43524;DHT22;29120;52.006;6.020;2022-08-19T02:53:59;18.70;93.70
43524;DHT22;29120;52.006;6.020;2022-08-19T02:56:25;18.60;93.70
43524;DHT22;29120;52.006;6.020;2022-08-19T02:58:53;18.50;93.80
43524;DHT22;29120;52.006;6.020;2022-08-19T03:01:30;18.50;93.90
43524;DHT22;29120;52.006;6.020;2022-08-19T03:03:58;18.40;93.90
43524;DHT22;29120;52.006;6.020;2022-08-19T03:06:26;18.40;93.90
43524;DHT22;29120;52.006;6.020;2022-08-19T03:08:53;18.40;94.00
43524;DHT22;29120;52.006;6.020;2022-08-19T03:11:22;18.30;94.00
43524;DHT22;29120;52.006;6.020;2022-08-19T03:13:48;18.30;94.30
43524;DHT22;29120;52.006;6.020;2022-08-19T03:16:19;18.20;94.00
43524;DHT22;29120;52.006;6.020;2022-08-19T03:18:45;18.10;94.30
43524;DHT22;29120;52.006;6.020;2022-08-19T03:21:17;18.10;94.00
43524;DHT22;29120;52.006;6.020;2022-08-19T03:23:43;18.10;94.10
43524;DHT22;29120;52.006;6.020;2022-08-19T03:26:08;18.00;94.10
43524;DHT22;29120;52.006;6.020;2022-08-19T03:28:34;18.00;94.10
43524;DHT22;29120;52.006;6.020;2022-08-19T03:31:06;18.00;94.10
43524;DHT22;29120;52.006;6.020;2022-08-19T03:33:33;18.00;94.20
43524;DHT22;29120;52.006;6.020;2022-08-19T03:36:12;18.00;94.10
43524;DHT22;29120;52.006;6.020;2022-08-19T03:38:47;18.00;94.10
43524;DHT22;29120;52.006;6.020;2022-08-19T03:41:16;18.00;94.20
43524;DHT22;29120;52.006;6.020;2022-08-19T03:43:43;17.90;94.10
43524;DHT22;29120;52.006;6.020;2022-08-19T03:46:11;17.90;94.20
43524;DHT22;29120;52.006;6.020;2022-08-19T03:48:38;17.90;94.20
43524;DHT22;29120;52.006;6.020;2022-08-19T03:51:05;17.80;94.20
43524;DHT22;29120;52.006;6.020;2022-08-19T03:53:32;17.80;94.20
43524;DHT22;29120;52.006;6.020;2022-08-19T03:55:58;17.80;94.20
43524;DHT22;29120;52.006;6.020;2022-08-19T03:58:29;17.80;94.30
43524;DHT22;29120;52.006;6.020;2022-08-19T04:00:56;17.70;94.20
43524;DHT22;29120;52.006;6.020;2022-08-19T04:03:23;17.70;94.20
43524;DHT22;29120;52.006;6.020;2022-08-19T04:05:49;17.60;94.20
43524;DHT22;29120;52.006;6.020;2022-08-19T04:08:15;17.60;94.30
43524;DHT22;29120;52.006;6.020;2022-08-19T04:10:47;17.60;94.30
43524;DHT22;29120;52.006;6.020;2022-08-19T04:13:17;17.60;94.30
43524;DHT22;29120;52.006;6.020;2022-08-19T04:15:44;17.50;94.30
43524;DHT22;29120;52.006;6.020;2022-08-19T04:18:11;17.50;94.30
43524;DHT22;29120;52.006;6.020;2022-08-19T04:20:43;17.60;94.30
43524;DHT22;29120;52.006;6.020;2022-08-19T04:23:09;17.50;94.30
43524;DHT22;29120;52.006;6.020;2022-08-19T04:25:40;17.50;94.40
43524;DHT22;29120;52.006;6.020;2022-08-19T04:28:07;17.50;94.40
43524;DHT22;29120;52.006;6.020;2022-08-19T04:30:42;17.50;94.40
43524;DHT22;29120;52.006;6.020;2022-08-19T04:33:08;17.40;94.40
43524;DHT22;29120;52.006;6.020;2022-08-19T04:35:42;17.40;94.40
43524;DHT22;29120;52.006;6.020;2022-08-19T04:38:08;17.40;94.40
43524;DHT22;29120;52.006;6.020;2022-08-19T04:40:40;17.40;94.50
43524;DHT22;29120;52.006;6.020;2022-08-19T04:43:24;17.40;94.50
43524;DHT22;29120;52.006;6.020;2022-08-19T04:45:50;17.30;94.50
43524;DHT22;29120;52.006;6.020;2022-08-19T04:48:16;17.30;94.50
43524;DHT22;29120;52.006;6.020;2022-08-19T04:50:43;17.30;94.40
43524;DHT22;29120;52.006;6.020;2022-08-19T04:53:09;17.20;94.40
43524;DHT22;29120;52.006;6.020;2022-08-19T04:55:39;17.20;94.50
43524;DHT22;29120;52.006;6.020;2022-08-19T04:58:05;17.20;94.50
43524;DHT22;29120;52.006;6.020;2022-08-19T05:00:31;17.20;94.50
43524;DHT22;29120;52.006;6.020;2022-08-19T05:02:56;17.20;94.40
43524;DHT22;29120;52.006;6.020;2022-08-19T05:05:22;17.20;94.40
43524;DHT22;29120;52.006;6.020;2022-08-19T05:07:48;17.10;94.40
43524;DHT22;29120;52.006;6.020;2022-08-19T05:10:13;17.20;94.40
43524;DHT22;29120;52.006;6.020;2022-08-19T05:12:39;17.20;94.40
43524;DHT22;29120;52.006;6.020;2022-08-19T05:15:05;17.20;94.40
43524;DHT22;29120;52.006;6.020;2022-08-19T05:17:33;17.20;94.40
43524;DHT22;29120;52.006;6.020;2022-08-19T05:19:59;17.30;94.40
43524;DHT22;29120;52.006;6.020;2022-08-19T05:22:45;17.30;94.40
43524;DHT22;29120;52.006;6.020;2022-08-19T05:25:15;17.30;94.40
43524;DHT22;29120;52.006;6.020;2022-08-19T05:27:41;17.30;94.40
43524;DHT22;29120;52.006;6.020;2022-08-19T05:30:08;17.40;94.40
43524;DHT22;29120;52.006;6.020;2022-08-19T05:32:34;17.40;94.40
43524;DHT22;29120;52.006;6.020;2022-08-19T05:35:00;17.50;94.30
43524;DHT22;29120;52.006;6.020;2022-08-19T05:37:25;17.50;94.40
43524;DHT22;29120;52.006;6.020;2022-08-19T05:39:52;17.50;94.30
43524;DHT22;29120;52.006;6.020;2022-08-19T05:42:19;17.60;94.20
43524;DHT22;29120;52.006;6.020;2022-08-19T05:44:45;17.80;94.20
43524;DHT22;29120;52.006;6.020;2022-08-19T05:47:13;17.90;94.10
43524;DHT22;29120;52.006;6.020;2022-08-19T05:49:40;18.10;94.00
43524;DHT22;29120;52.006;6.020;2022-08-19T05:52:09;18.50;93.80
43524;DHT22;29120;52.006;6.020;2022-08-19T05:54:38;18.90;93.40
43524;DHT22;29120;52.006;6.020;2022-08-19T05:57:05;19.30;93.00
43524;DHT22;29120;52.006;6.020;2022-08-19T05:59:31;19.60;92.60
43524;DHT22;29120;52.006;6.020;2022-08-19T06:01:58;20.00;92.30
43524;DHT22;29120;52.006;6.020;2022-08-19T06:04:25;20.40;92.00
43524;DHT22;29120;52.006;6.020;2022-08-19T06:06:53;20.70;91.80
43524;DHT22;29120;52.006;6.020;2022-08-19T06:09:20;21.00;91.50
43524;DHT22;29120;52.006;6.020;2022-08-19T06:11:47;21.30;91.20
43524;DHT22;29120;52.006;6.020;2022-08-19T06:14:17;21.60;91.00
43524;DHT22;29120;52.006;6.020;2022-08-19T06:16:44;21.90;90.70
43524;DHT22;29120;52.006;6.020;2022-08-19T06:19:14;22.20;90.40
43524;DHT22;29120;52.006;6.020;2022-08-19T06:21:43;22.50;90.00
43524;DHT22;29120;52.006;6.020;2022-08-19T06:24:12;22.80;89.00
43524;DHT22;29120;52.006;6.020;2022-08-19T06:26:40;23.10;87.70
43524;DHT22;29120;52.006;6.020;2022-08-19T06:29:07;23.30;86.90
43524;DHT22;29120;52.006;6.020;2022-08-19T06:31:35;23.70;86.20
43524;DHT22;29120;52.006;6.020;2022-08-19T06:34:03;24.00;85.50
43524;DHT22;29120;52.006;6.020;2022-08-19T06:36:34;24.20;84.60
43524;DHT22;29120;52.006;6.020;2022-08-19T06:39:03;24.50;83.70
43524;DHT22;29120;52.006;6.020;2022-08-19T06:41:29;24.70;83.10
43524;DHT22;29120;52.006;6.020;2022-08-19T06:43:56;25.00;82.60
43524;DHT22;29120;52.006;6.020;2022-08-19T06:46:22;25.20;82.00
43524;DHT22;29120;52.006;6.020;2022-08-19T06:48:48;25.40;81.60
43524;DHT22;29120;52.006;6.020;2022-08-19T06:51:16;25.70;81.10
43524;DHT22;29120;52.006;6.020;2022-08-19T06:53:45;26.00;80.40
43524;DHT22;29120;52.006;6.020;2022-08-19T06:56:14;26.10;79.70
43524;DHT22;29120;52.006;6.020;2022-08-19T06:58:40;26.10;79.80
43524;DHT22;29120;52.006;6.020;2022-08-19T07:01:05;26.20;79.70
43524;DHT22;29120;52.006;6.020;2022-08-19T07:03:33;26.20;79.50
43524;DHT22;29120;52.006;6.020;2022-08-19T07:06:11;26.20;79.30
43524;DHT22;29120;52.006;6.020;2022-08-19T07:08:38;26.20;79.10
43524;DHT22;29120;52.006;6.020;2022-08-19T07:11:11;26.30;78.80
43524;DHT22;29120;52.006;6.020;2022-08-19T07:13:38;26.60;78.50
43524;DHT22;29120;52.006;6.020;2022-08-19T07:16:08;26.60;77.30
43524;DHT22;29120;52.006;6.020;2022-08-19T07:18:34;26.70;76.70
43524;DHT22;29120;52.006;6.020;2022-08-19T07:21:09;26.90;76.50
43524;DHT22;29120;52.006;6.020;2022-08-19T07:23:36;27.10;76.20
43524;DHT22;29120;52.006;6.020;2022-08-19T07:26:10;27.30;75.70
43524;DHT22;29120;52.006;6.020;2022-08-19T07:28:36;27.40;75.30
43524;DHT22;29120;52.006;6.020;2022-08-19T07:31:07;27.30;74.80
43524;DHT22;29120;52.006;6.020;2022-08-19T07:33:34;27.50;74.70
43524;DHT22;29120;52.006;6.020;2022-08-19T07:36:06;27.20;73.80
43524;DHT22;29120;52.006;6.020;2022-08-19T07:38:32;26.90;74.40
43524;DHT22;29120;52.006;6.020;2022-08-19T07:40:58;26.70;75.00
43524;DHT22;29120;52.006;6.020;2022-08-19T07:43:24;26.70;75.00
43524;DHT22;29120;52.006;6.020;2022-08-19T07:45:51;26.90;74.70
43524;DHT22;29120;52.006;6.020;2022-08-19T07:48:18;27.20;74.20
43524;DHT22;29120;52.006;6.020;2022-08-19T07:50:44;27.40;73.20
43524;DHT22;29120;52.006;6.020;2022-08-19T07:53:10;27.80;72.50
43524;DHT22;29120;52.006;6.020;2022-08-19T07:55:37;27.90;71.90
43524;DHT22;29120;52.006;6.020;2022-08-19T07:58:03;28.10;71.50
43524;DHT22;29120;52.006;6.020;2022-08-19T08:00:30;28.20;70.90
43524;DHT22;29120;52.006;6.020;2022-08-19T08:02:55;28.40;70.20
43524;DHT22;29120;52.006;6.020;2022-08-19T08:05:22;28.40;70.50
43524;DHT22;29120;52.006;6.020;2022-08-19T08:08:06;28.30;69.80
43524;DHT22;29120;52.006;6.020;2022-08-19T08:10:50;28.30;69.60
43524;DHT22;29120;52.006;6.020;2022-08-19T08:13:16;28.30;69.30
43524;DHT22;29120;52.006;6.020;2022-08-19T08:15:41;28.50;68.30
43524;DHT22;29120;52.006;6.020;2022-08-19T08:18:11;28.60;67.70
43524;DHT22;29120;52.006;6.020;2022-08-19T08:20:36;28.70;67.10
43524;DHT22;29120;52.006;6.020;2022-08-19T08:23:02;28.60;67.20
43524;DHT22;29120;52.006;6.020;2022-08-19T08:25:46;28.70;67.40
43524;DHT22;29120;52.006;6.020;2022-08-19T08:28:13;28.90;67.10
43524;DHT22;29120;52.006;6.020;2022-08-19T08:30:39;28.90;66.90
43524;DHT22;29120;52.006;6.020;2022-08-19T08:33:07;28.80;67.00
43524;DHT22;29120;52.006;6.020;2022-08-19T08:35:33;28.50;67.20
43524;DHT22;29120;52.006;6.020;2022-08-19T08:37:59;28.30;67.50
43524;DHT22;29120;52.006;6.020;2022-08-19T08:40:38;28.10;67.80
43524;DHT22;29120;52.006;6.020;2022-08-19T08:45:41;28.00;68.00
43524;DHT22;29120;52.006;6.020;2022-08-19T08:51:11;27.90;68.10
43524;DHT22;29120;52.006;6.020;2022-08-19T08:53:38;27.90;68.40
43524;DHT22;29120;52.006;6.020;2022-08-19T08:56:06;27.90;66.70
43524;DHT22;29120;52.006;6.020;2022-08-19T08:58:46;27.70;67.50
43524;DHT22;29120;52.006;6.020;2022-08-19T09:01:13;27.60;67.40
43524;DHT22;29120;52.006;6.020;2022-08-19T09:03:42;27.90;67.70
43524;DHT22;29120;52.006;6.020;2022-08-19T09:06:32;28.30;64.60
43524;DHT22;29120;52.006;6.020;2022-08-19T09:09:34;29.00;63.20
43524;DHT22;29120;52.006;6.020;2022-08-19T09:15:09;30.40;59.50
43524;DHT22;29120;52.006;6.020;2022-08-19T09:17:35;30.60;58.50
43524;DHT22;29120;52.006;6.020;2022-08-19T09:22:41;30.90;57.80
43524;DHT22;29120;52.006;6.020;2022-08-19T09:25:11;31.00;57.60
43524;DHT22;29120;52.006;6.020;2022-08-19T09:27:38;31.20;57.30
43524;DHT22;29120;52.006;6.020;2022-08-19T09:30:06;31.20;56.70
43524;DHT22;29120;52.006;6.020;2022-08-19T09:32:33;31.30;56.80
43524;DHT22;29120;52.006;6.020;2022-08-19T09:34:59;31.40;55.60
43524;DHT22;29120;52.006;6.020;2022-08-19T09:37:25;31.70;55.70
43524;DHT22;29120;52.006;6.020;2022-08-19T09:39:51;32.00;55.10
43524;DHT22;29120;52.006;6.020;2022-08-19T09:42:18;32.30;54.10
43524;DHT22;29120;52.006;6.020;2022-08-19T09:44:43;32.70;54.10
43524;DHT22;29120;52.006;6.020;2022-08-19T09:47:10;33.00;51.90
43524;DHT22;29120;52.006;6.020;2022-08-19T09:49:37;33.10;52.00
43524;DHT22;29120;52.006;6.020;2022-08-19T09:52:05;33.50;51.70
43524;DHT22;29120;52.006;6.020;2022-08-19T09:54:30;33.90;50.90
43524;DHT22;29120;52.006;6.020;2022-08-19T09:56:58;34.30;51.00
43524;DHT22;29120;52.006;6.020;2022-08-19T09:59:25;34.40;50.80
43524;DHT22;29120;52.006;6.020;2022-08-19T10:01:51;34.40;50.80
43524;DHT22;29120;52.006;6.020;2022-08-19T10:04:17;34.10;51.00
43524;DHT22;29120;52.006;6.020;2022-08-19T10:06:43;33.30;51.60
43524;DHT22;29120;52.006;6.020;2022-08-19T10:09:09;33.20;53.00
43524;DHT22;29120;52.006;6.020;2022-08-19T10:11:36;33.80;52.70
43524;DHT22;29120;52.006;6.020;2022-08-19T10:14:04;34.40;52.10
43524;DHT22;29120;52.006;6.020;2022-08-19T10:16:33;35.20;51.20
43524;DHT22;29120;52.006;6.020;2022-08-19T10:19:00;35.00;50.80
43524;DHT22;29120;52.006;6.020;2022-08-19T10:21:29;35.70;50.60
43524;DHT22;29120;52.006;6.020;2022-08-19T10:23:56;36.20;49.30
43524;DHT22;29120;52.006;6.020;2022-08-19T10:26:28;36.60;48.70
43524;DHT22;29120;52.006;6.020;2022-08-19T10:28:55;36.80;48.30
43524;DHT22;29120;52.006;6.020;2022-08-19T10:31:26;37.00;48.00
43524;DHT22;29120;52.006;6.020;2022-08-19T10:33:53;37.10;47.50
43524;DHT22;29120;52.006;6.020;2022-08-19T10:36:27;37.50;47.10
43524;DHT22;29120;52.006;6.020;2022-08-19T10:38:56;37.60;46.60
43524;DHT22;29120;52.006;6.020;2022-08-19T10:41:25;37.80;46.80
43524;DHT22;29120;52.006;6.020;2022-08-19T10:43:53;37.90;46.10
43524;DHT22;29120;52.006;6.020;2022-08-19T10:46:21;37.90;45.90
43524;DHT22;29120;52.006;6.020;2022-08-19T10:48:47;37.90;45.70
43524;DHT22;29120;52.006;6.020;2022-08-19T10:51:13;38.00;45.50
43524;DHT22;29120;52.006;6.020;2022-08-19T10:53:58;38.20;45.20
43524;DHT22;29120;52.006;6.020;2022-08-19T10:56:25;38.40;45.00
43524;DHT22;29120;52.006;6.020;2022-08-19T10:59:09;38.40;44.70
43524;DHT22;29120;52.006;6.020;2022-08-19T11:01:37;38.60;44.50
43524;DHT22;29120;52.006;6.020;2022-08-19T11:04:04;38.80;44.20
43524;DHT22;29120;52.006;6.020;2022-08-19T11:06:32;39.00;43.80
43524;DHT22;29120;52.006;6.020;2022-08-19T11:08:57;39.00;43.00
43524;DHT22;29120;52.006;6.020;2022-08-19T11:11:25;39.00;43.20
43524;DHT22;29120;52.006;6.020;2022-08-19T11:13:51;39.10;42.30
43524;DHT22;29120;52.006;6.020;2022-08-19T11:16:19;39.20;42.30
43524;DHT22;29120;52.006;6.020;2022-08-19T11:18:49;39.30;42.20
43524;DHT22;29120;52.006;6.020;2022-08-19T11:21:19;39.20;42.70
43524;DHT22;29120;52.006;6.020;2022-08-19T11:23:47;39.30;43.20
43524;DHT22;29120;52.006;6.020;2022-08-19T11:26:14;39.40;42.30
43524;DHT22;29120;52.006;6.020;2022-08-19T11:28:40;39.40;42.20
43524;DHT22;29120;52.006;6.020;2022-08-19T11:31:14;39.40;42.10
43524;DHT22;29120;52.006;6.020;2022-08-19T11:33:40;39.20;41.50
43524;DHT22;29120;52.006;6.020;2022-08-19T11:36:06;39.20;42.20
43524;DHT22;29120;52.006;6.020;2022-08-19T11:38:33;39.30;42.10
43524;DHT22;29120;52.006;6.020;2022-08-19T11:41:02;39.40;42.10
43524;DHT22;29120;52.006;6.020;2022-08-19T11:43:29;39.70;41.80
43524;DHT22;29120;52.006;6.020;2022-08-19T11:45:55;39.90;41.70
43524;DHT22;29120;52.006;6.020;2022-08-19T11:48:22;39.90;41.40
43524;DHT22;29120;52.006;6.020;2022-08-19T11:50:52;39.90;41.80
43524;DHT22;29120;52.006;6.020;2022-08-19T11:53:19;40.00;41.60
43524;DHT22;29120;52.006;6.020;2022-08-19T11:55:46;40.00;41.40
43524;DHT22;29120;52.006;6.020;2022-08-19T11:58:13;40.10;41.20
43524;DHT22;29120;52.006;6.020;2022-08-19T12:00:40;40.10;40.90
43524;DHT22;29120;52.006;6.020;2022-08-19T12:03:06;40.20;41.30
43524;DHT22;29120;52.006;6.020;2022-08-19T12:05:32;40.30;41.00
43524;DHT22;29120;52.006;6.020;2022-08-19T12:07:58;40.50;40.70
43524;DHT22;29120;52.006;6.020;2022-08-19T12:10:23;40.50;40.20
43524;DHT22;29120;52.006;6.020;2022-08-19T12:12:49;40.30;40.40
43524;DHT22;29120;52.006;6.020;2022-08-19T12:15:15;40.30;40.20
43524;DHT22;29120;52.006;6.020;2022-08-19T12:17:41;40.20;40.20
43524;DHT22;29120;52.006;6.020;2022-08-19T12:20:09;40.20;40.90
43524;DHT22;29120;52.006;6.020;2022-08-19T12:22:36;40.30;40.40
43524;DHT22;29120;52.006;6.020;2022-08-19T12:25:04;40.30;40.20
43524;DHT22;29120;52.006;6.020;2022-08-19T12:27:30;40.30;39.80
43524;DHT22;29120;52.006;6.020;2022-08-19T12:29:55;40.50;39.80
43524;DHT22;29120;52.006;6.020;2022-08-19T12:32:21;40.10;39.30
43524;DHT22;29120;52.006;6.020;2022-08-19T12:34:46;40.00;40.00
43524;DHT22;29120;52.006;6.020;2022-08-19T12:37:12;40.10;40.00
43524;DHT22;29120;52.006;6.020;2022-08-19T12:39:40;40.10;39.80
43524;DHT22;29120;52.006;6.020;2022-08-19T12:42:08;40.10;39.70
43524;DHT22;29120;52.006;6.020;2022-08-19T12:44:35;40.20;39.70
43524;DHT22;29120;52.006;6.020;2022-08-19T12:47:00;40.30;39.50
43524;DHT22;29120;52.006;6.020;2022-08-19T12:49:28;40.40;39.50
43524;DHT22;29120;52.006;6.020;2022-08-19T12:51:54;40.30;39.10
43524;DHT22;29120;52.006;6.020;2022-08-19T12:54:20;40.00;39.60
43524;DHT22;29120;52.006;6.020;2022-08-19T12:56:45;39.80;40.00
43524;DHT22;29120;52.006;6.020;2022-08-19T12:59:11;39.70;40.40
43524;DHT22;29120;52.006;6.020;2022-08-19T13:01:37;39.80;40.60
43524;DHT22;29120;52.006;6.020;2022-08-19T13:04:03;39.70;41.00
43524;DHT22;29120;52.006;6.020;2022-08-19T13:06:29;39.90;40.90
43524;DHT22;29120;52.006;6.020;2022-08-19T13:08:55;39.90;40.80
43524;DHT22;29120;52.006;6.020;2022-08-19T13:11:21;39.80;41.00
43524;DHT22;29120;52.006;6.020;2022-08-19T13:13:50;39.60;40.90
43524;DHT22;29120;52.006;6.020;2022-08-19T13:16:17;39.20;41.10
43524;DHT22;29120;52.006;6.020;2022-08-19T13:18:45;39.20;41.90
43524;DHT22;29120;52.006;6.020;2022-08-19T13:21:13;39.30;42.00
43524;DHT22;29120;52.006;6.020;2022-08-19T13:23:39;39.40;41.90
43524;DHT22;29120;52.006;6.020;2022-08-19T13:26:07;39.40;41.40
43524;DHT22;29120;52.006;6.020;2022-08-19T13:28:34;39.20;41.60
43524;DHT22;29120;52.006;6.020;2022-08-19T13:31:31;38.90;41.40
43524;DHT22;29120;52.006;6.020;2022-08-19T13:34:17;38.80;42.10
43524;DHT22;29120;52.006;6.020;2022-08-19T13:36:43;38.90;42.20
43524;DHT22;29120;52.006;6.020;2022-08-19T13:39:09;38.90;42.00
43524;DHT22;29120;52.006;6.020;2022-08-19T13:41:35;38.80;41.90
43524;DHT22;29120;52.006;6.020;2022-08-19T13:44:02;39.00;42.00
43524;DHT22;29120;52.006;6.020;2022-08-19T13:46:27;38.80;42.00
43524;DHT22;29120;52.006;6.020;2022-08-19T13:48:56;38.00;41.90
43524;DHT22;29120;52.006;6.020;2022-08-19T13:51:22;37.20;42.70
43524;DHT22;29120;52.006;6.020;2022-08-19T13:53:47;36.50;43.90
43524;DHT22;29120;52.006;6.020;2022-08-19T13:56:15;36.10;44.70
43524;DHT22;29120;52.006;6.020;2022-08-19T13:58:41;36.30;44.70
43524;DHT22;29120;52.006;6.020;2022-08-19T14:01:07;36.50;44.50
43524;DHT22;29120;52.006;6.020;2022-08-19T14:03:34;36.60;44.30
43524;DHT22;29120;52.006;6.020;2022-08-19T14:06:00;36.60;44.10
43524;DHT22;29120;52.006;6.020;2022-08-19T14:08:26;36.70;44.90
43524;DHT22;29120;52.006;6.020;2022-08-19T14:10:54;36.30;44.30
43524;DHT22;29120;52.006;6.020;2022-08-19T14:13:21;35.80;45.00
43524;DHT22;29120;52.006;6.020;2022-08-19T14:15:47;35.40;45.70
43524;DHT22;29120;52.006;6.020;2022-08-19T14:18:17;35.30;46.10
43524;DHT22;29120;52.006;6.020;2022-08-19T14:20:43;35.10;46.60
43524;DHT22;29120;52.006;6.020;2022-08-19T14:23:09;35.00;46.80
43524;DHT22;29120;52.006;6.020;2022-08-19T14:25:36;34.70;46.90
43524;DHT22;29120;52.006;6.020;2022-08-19T14:28:01;34.60;47.10
43524;DHT22;29120;52.006;6.020;2022-08-19T14:30:30;34.30;47.60
43524;DHT22;29120;52.006;6.020;2022-08-19T14:32:57;34.00;48.00
43524;DHT22;29120;52.006;6.020;2022-08-19T14:35:24;33.80;49.10
43524;DHT22;29120;52.006;6.020;2022-08-19T14:37:50;33.60;49.10
43524;DHT22;29120;52.006;6.020;2022-08-19T14:40:19;33.20;49.90
43524;DHT22;29120;52.006;6.020;2022-08-19T14:42:56;33.10;50.30
43524;DHT22;29120;52.006;6.020;2022-08-19T14:45:25;32.80;50.60
43524;DHT22;29120;52.006;6.020;2022-08-19T14:47:52;32.50;51.10
43524;DHT22;29120;52.006;6.020;2022-08-19T14:50:17;32.10;51.50
43524;DHT22;29120;52.006;6.020;2022-08-19T14:52:43;31.70;52.20
43524;DHT22;29120;52.006;6.020;2022-08-19T14:55:09;31.40;53.00
43524;DHT22;29120;52.006;6.020;2022-08-19T14:57:34;31.10;53.50
43524;DHT22;29120;52.006;6.020;2022-08-19T15:00:00;31.00;54.00
43524;DHT22;29120;52.006;6.020;2022-08-19T15:02:26;30.90;55.10
43524;DHT22;29120;52.006;6.020;2022-08-19T15:04:51;30.60;54.70
43524;DHT22;29120;52.006;6.020;2022-08-19T15:07:17;30.50;55.20
43524;DHT22;29120;52.006;6.020;2022-08-19T15:09:43;30.30;55.50
43524;DHT22;29120;52.006;6.020;2022-08-19T15:12:08;30.20;55.90
43524;DHT22;29120;52.006;6.020;2022-08-19T15:14:36;30.10;56.30
43524;DHT22;29120;52.006;6.020;2022-08-19T15:17:03;30.20;56.50
43524;DHT22;29120;52.006;6.020;2022-08-19T15:19:31;30.20;56.50
43524;DHT22;29120;52.006;6.020;2022-08-19T15:21:57;30.20;56.50
43524;DHT22;29120;52.006;6.020;2022-08-19T15:24:23;30.10;56.70
43524;DHT22;29120;52.006;6.020;2022-08-19T15:26:52;30.00;56.80
43524;DHT22;29120;52.006;6.020;2022-08-19T15:29:17;30.00;56.90
43524;DHT22;29120;52.006;6.020;2022-08-19T15:31:43;29.80;57.20
43524;DHT22;29120;52.006;6.020;2022-08-19T15:34:08;29.60;57.50
43524;DHT22;29120;52.006;6.020;2022-08-19T15:36:35;29.50;58.20
43524;DHT22;29120;52.006;6.020;2022-08-19T15:39:02;29.20;58.90
43524;DHT22;29120;52.006;6.020;2022-08-19T15:41:29;28.90;60.00
43524;DHT22;29120;52.006;6.020;2022-08-19T15:43:58;28.70;61.40
43524;DHT22;29120;52.006;6.020;2022-08-19T15:46:26;28.40;62.20